EZY322 EGAC-EGPH
Flight info
| Callsign | EZY322 |
|---|---|
| Flight time | 0h 33m |
| Altitude | 17000 |
| Route | MAGEE DCT BLACA P600 TUNSO |
| Aircraft | A319/M-SDE2E3FGIJ1RWXYZ/LB1 |
Departure
| Time | 2026-04-17 11:53 |
|---|---|
| Airport | George Best Belfast City Airport (EGAC) |
Arrival
| Time | 2026-04-17 12:27 |
|---|---|
| Airport | Edinburgh Airport (EGPH) |
| Time | Latitude | Longitude | Altitude | Speed | Heading |
|---|---|---|---|---|---|
| 2026-04-17 11:36 | 54.61382 | -5.87290 | 24 ft | 0 kts | 126° |
| 2026-04-17 11:45 | 54.61395 | -5.87323 | 23 ft | 4 kts | 116° |
| 2026-04-17 11:46 | 54.61404 | -5.87365 | 23 ft | 4 kts | 95° |
| 2026-04-17 11:46 | 54.61400 | -5.87407 | 23 ft | 2 kts | 56° |
| 2026-04-17 11:46 | 54.61399 | -5.87410 | 23 ft | 0 kts | 54° |
| 2026-04-17 11:49 | 54.61408 | -5.87390 | 24 ft | 8 kts | 54° |
| 2026-04-17 11:49 | 54.61462 | -5.87306 | 25 ft | 11 kts | 34° |
| 2026-04-17 11:49 | 54.61529 | -5.87228 | 25 ft | 12 kts | 34° |
| 2026-04-17 11:49 | 54.61598 | -5.87144 | 24 ft | 13 kts | 34° |
| 2026-04-17 11:50 | 54.61682 | -5.87042 | 23 ft | 15 kts | 36° |
| 2026-04-17 11:50 | 54.61768 | -5.87017 | 24 ft | 5 kts | 315° |
| 2026-04-17 11:50 | 54.61768 | -5.87018 | 23 ft | 0 kts | 314° |
| 2026-04-17 11:50 | 54.61771 | -5.87023 | 23 ft | 3 kts | 311° |
| 2026-04-17 11:51 | 54.61829 | -5.87156 | 25 ft | 18 kts | 321° |
| 2026-04-17 11:51 | 54.61937 | -5.87100 | 25 ft | 18 kts | 34° |
| 2026-04-17 11:51 | 54.62074 | -5.86938 | 25 ft | 30 kts | 34° |
| 2026-04-17 11:51 | 54.62244 | -5.86735 | 24 ft | 29 kts | 35° |
| 2026-04-17 11:52 | 54.62408 | -5.86552 | 25 ft | 23 kts | 18° |
| 2026-04-17 11:52 | 54.62472 | -5.86463 | 23 ft | 10 kts | 136° |
| 2026-04-17 11:52 | 54.62449 | -5.86476 | 23 ft | 3 kts | 213° |
| 2026-04-17 11:52 | 54.62415 | -5.86530 | 25 ft | 15 kts | 220° |
| 2026-04-17 11:53 | 54.62192 | -5.86792 | 24 ft | 79 kts | 215° |
| 2026-04-17 11:53 | 54.61544 | -5.87565 | 24 ft | 143 kts | 214° |
| 2026-04-17 11:53 | 54.60707 | -5.88524 | 693 ft | 137 kts | 212° |
| 2026-04-17 11:53 | 54.59923 | -5.89452 | 1407 ft | 139 kts | 213° |
| 2026-04-17 11:54 | 54.59023 | -5.90322 | 1838 ft | 161 kts | 193° |
| 2026-04-17 11:54 | 54.57848 | -5.89900 | 2192 ft | 194 kts | 151° |
| 2026-04-17 11:54 | 54.57207 | -5.88651 | 2446 ft | 222 kts | 121° |
| 2026-04-17 11:54 | 54.57005 | -5.85819 | 2915 ft | 262 kts | 82° |
| 2026-04-17 11:55 | 54.57907 | -5.82995 | 3612 ft | 286 kts | 46° |
| 2026-04-17 11:55 | 54.59556 | -5.80997 | 4579 ft | 294 kts | 28° |
| 2026-04-17 11:55 | 54.61408 | -5.79442 | 5561 ft | 299 kts | 23° |
| 2026-04-17 11:55 | 54.63316 | -5.77926 | 6539 ft | 304 kts | 24° |
| 2026-04-17 11:56 | 54.65218 | -5.76274 | 7479 ft | 308 kts | 27° |
| 2026-04-17 11:56 | 54.67102 | -5.74450 | 8392 ft | 314 kts | 30° |
| 2026-04-17 11:56 | 54.68981 | -5.72469 | 9270 ft | 319 kts | 32° |
| 2026-04-17 11:56 | 54.70864 | -5.70372 | 10104 ft | 327 kts | 33° |
| 2026-04-17 11:57 | 54.72831 | -5.68126 | 10472 ft | 351 kts | 34° |
| 2026-04-17 11:57 | 54.74910 | -5.65729 | 11057 ft | 364 kts | 34° |
| 2026-04-17 11:57 | 54.76964 | -5.63103 | 11807 ft | 370 kts | 43° |
| 2026-04-17 11:57 | 54.78717 | -5.59819 | 12564 ft | 373 kts | 56° |
| 2026-04-17 11:58 | 54.80063 | -5.55995 | 13344 ft | 372 kts | 69° |
| 2026-04-17 11:58 | 54.81000 | -5.51830 | 14105 ft | 373 kts | 76° |
| 2026-04-17 11:58 | 54.81870 | -5.47578 | 14853 ft | 377 kts | 76° |
| 2026-04-17 11:58 | 54.82755 | -5.43273 | 15573 ft | 381 kts | 76° |
| 2026-04-17 11:59 | 54.83651 | -5.38918 | 16262 ft | 385 kts | 76° |
| 2026-04-17 11:59 | 54.84551 | -5.34520 | 16713 ft | 388 kts | 76° |
| 2026-04-17 11:59 | 54.85454 | -5.30097 | 16839 ft | 386 kts | 76° |
| 2026-04-17 11:59 | 54.86335 | -5.25805 | 16870 ft | 370 kts | 76° |
| 2026-04-17 12:00 | 54.87254 | -5.21677 | 16865 ft | 367 kts | 69° |
| 2026-04-17 12:00 | 54.88602 | -5.17883 | 16868 ft | 372 kts | 55° |
| 2026-04-17 12:00 | 54.90386 | -5.14695 | 16868 ft | 375 kts | 40° |
| 2026-04-17 12:00 | 54.92570 | -5.12226 | 16867 ft | 376 kts | 27° |
| 2026-04-17 12:01 | 54.94918 | -5.10222 | 16869 ft | 376 kts | 26° |
| 2026-04-17 12:01 | 54.97264 | -5.08206 | 16869 ft | 376 kts | 26° |
| 2026-04-17 12:01 | 54.99604 | -5.06182 | 16866 ft | 376 kts | 26° |
| 2026-04-17 12:01 | 55.01940 | -5.04149 | 16867 ft | 375 kts | 26° |
| 2026-04-17 12:02 | 55.04276 | -5.02108 | 16868 ft | 375 kts | 27° |
| 2026-04-17 12:02 | 55.06607 | -5.00072 | 16869 ft | 375 kts | 27° |
| 2026-04-17 12:02 | 55.08853 | -4.97778 | 16864 ft | 374 kts | 38° |
| 2026-04-17 12:02 | 55.10780 | -4.94793 | 16859 ft | 366 kts | 50° |
| 2026-04-17 12:03 | 55.12273 | -4.91254 | 16622 ft | 357 kts | 67° |
| 2026-04-17 12:03 | 55.13338 | -4.87371 | 16421 ft | 353 kts | 71° |
| 2026-04-17 12:03 | 55.14334 | -4.83474 | 16219 ft | 350 kts | 72° |
| 2026-04-17 12:03 | 55.15298 | -4.79571 | 16034 ft | 349 kts | 72° |
| 2026-04-17 12:04 | 55.16253 | -4.75660 | 15840 ft | 348 kts | 72° |
| 2026-04-17 12:04 | 55.17202 | -4.71769 | 15639 ft | 347 kts | 72° |
| 2026-04-17 12:04 | 55.18152 | -4.67892 | 15443 ft | 346 kts | 72° |
| 2026-04-17 12:04 | 55.19101 | -4.64033 | 15248 ft | 345 kts | 72° |
| 2026-04-17 12:05 | 55.20047 | -4.60182 | 15061 ft | 344 kts | 72° |
| 2026-04-17 12:05 | 55.20989 | -4.56343 | 14852 ft | 343 kts | 72° |
| 2026-04-17 12:05 | 55.21930 | -4.52509 | 14666 ft | 342 kts | 72° |
| 2026-04-17 12:05 | 55.22867 | -4.48690 | 14464 ft | 341 kts | 71° |
| 2026-04-17 12:06 | 55.23802 | -4.44875 | 14283 ft | 340 kts | 72° |
| 2026-04-17 12:06 | 55.24732 | -4.41070 | 14083 ft | 339 kts | 72° |
| 2026-04-17 12:06 | 55.25657 | -4.37277 | 13903 ft | 337 kts | 72° |
| 2026-04-17 12:06 | 55.26576 | -4.33488 | 13712 ft | 339 kts | 72° |
| 2026-04-17 12:07 | 55.27498 | -4.29677 | 13523 ft | 339 kts | 72° |
| 2026-04-17 12:07 | 55.28421 | -4.25870 | 13332 ft | 339 kts | 72° |
| 2026-04-17 12:07 | 55.29343 | -4.22067 | 13138 ft | 338 kts | 72° |
| 2026-04-17 12:07 | 55.30259 | -4.18276 | 12955 ft | 337 kts | 72° |
| 2026-04-17 12:08 | 55.31173 | -4.14485 | 12754 ft | 336 kts | 72° |
| 2026-04-17 12:08 | 55.32080 | -4.10713 | 12566 ft | 335 kts | 72° |
| 2026-04-17 12:08 | 55.32981 | -4.06949 | 12375 ft | 334 kts | 72° |
| 2026-04-17 12:08 | 55.33881 | -4.03193 | 12190 ft | 334 kts | 72° |
| 2026-04-17 12:09 | 55.34782 | -3.99445 | 11999 ft | 333 kts | 72° |
| 2026-04-17 12:09 | 55.35680 | -3.95702 | 11821 ft | 332 kts | 72° |
| 2026-04-17 12:09 | 55.36574 | -3.91968 | 11641 ft | 331 kts | 72° |
| 2026-04-17 12:09 | 55.37464 | -3.88237 | 11448 ft | 330 kts | 72° |
| 2026-04-17 12:10 | 55.38349 | -3.84529 | 11266 ft | 329 kts | 72° |
| 2026-04-17 12:10 | 55.39229 | -3.80820 | 11080 ft | 328 kts | 72° |
| 2026-04-17 12:10 | 55.40104 | -3.77119 | 10891 ft | 328 kts | 72° |
| 2026-04-17 12:10 | 55.40976 | -3.73425 | 10712 ft | 326 kts | 72° |
| 2026-04-17 12:11 | 55.41845 | -3.69746 | 10531 ft | 325 kts | 71° |
| 2026-04-17 12:11 | 55.42712 | -3.66071 | 10348 ft | 325 kts | 72° |
| 2026-04-17 12:11 | 55.43576 | -3.62408 | 10167 ft | 323 kts | 72° |
| 2026-04-17 12:12 | 55.45290 | -3.55134 | 9817 ft | 320 kts | 72° |
| 2026-04-17 12:12 | 55.46137 | -3.51521 | 9612 ft | 319 kts | 72° |
| 2026-04-17 12:12 | 55.46968 | -3.47962 | 9446 ft | 318 kts | 72° |
| 2026-04-17 12:12 | 55.47813 | -3.44321 | 9271 ft | 316 kts | 72° |
| 2026-04-17 12:13 | 55.48648 | -3.40730 | 9101 ft | 316 kts | 71° |
| 2026-04-17 12:13 | 55.49691 | -3.37317 | 8909 ft | 318 kts | 57° |
| 2026-04-17 12:13 | 55.51178 | -3.34427 | 8730 ft | 319 kts | 41° |
| 2026-04-17 12:13 | 55.53013 | -3.32248 | 8540 ft | 318 kts | 28° |
| 2026-04-17 12:14 | 55.54954 | -3.30379 | 8362 ft | 319 kts | 28° |
| 2026-04-17 12:14 | 55.56902 | -3.28483 | 8179 ft | 319 kts | 28° |
| 2026-04-17 12:14 | 55.58837 | -3.26586 | 7998 ft | 317 kts | 28° |
| 2026-04-17 12:14 | 55.60763 | -3.24689 | 7819 ft | 316 kts | 28° |
| 2026-04-17 12:15 | 55.62682 | -3.22795 | 7642 ft | 316 kts | 29° |
| 2026-04-17 12:15 | 55.64614 | -3.20959 | 7481 ft | 315 kts | 25° |
| 2026-04-17 12:15 | 55.66567 | -3.19331 | 7355 ft | 314 kts | 24° |
| 2026-04-17 12:15 | 55.68562 | -3.17742 | 7236 ft | 314 kts | 23° |
| 2026-04-17 12:16 | 55.70560 | -3.16182 | 7118 ft | 314 kts | 22° |
| 2026-04-17 12:16 | 55.72551 | -3.14638 | 6989 ft | 312 kts | 22° |
| 2026-04-17 12:16 | 55.74550 | -3.13083 | 6865 ft | 309 kts | 22° |
| 2026-04-17 12:16 | 55.76495 | -3.11563 | 6740 ft | 311 kts | 23° |
| 2026-04-17 12:17 | 55.78472 | -3.10010 | 6611 ft | 311 kts | 23° |
| 2026-04-17 12:17 | 55.80441 | -3.08453 | 6486 ft | 310 kts | 22° |
| 2026-04-17 12:17 | 55.82405 | -3.06900 | 6359 ft | 309 kts | 23° |
| 2026-04-17 12:17 | 55.84369 | -3.05363 | 6247 ft | 307 kts | 20° |
| 2026-04-17 12:18 | 55.86419 | -3.04360 | 6121 ft | 306 kts | 8° |
| 2026-04-17 12:18 | 55.88511 | -3.03689 | 5708 ft | 305 kts | 7° |
| 2026-04-17 12:18 | 55.90599 | -3.03031 | 5344 ft | 302 kts | 7° |
| 2026-04-17 12:18 | 55.92619 | -3.02383 | 5220 ft | 287 kts | 7° |
| 2026-04-17 12:19 | 55.94551 | -3.01841 | 4757 ft | 277 kts | 5° |
| 2026-04-17 12:19 | 55.96411 | -3.00953 | 4208 ft | 277 kts | 22° |
| 2026-04-17 12:19 | 55.98163 | -2.99516 | 3657 ft | 277 kts | 26° |
| 2026-04-17 12:19 | 55.99893 | -2.98022 | 3142 ft | 273 kts | 26° |
| 2026-04-17 12:20 | 56.01654 | -2.97150 | 2991 ft | 257 kts | 359° |
| 2026-04-17 12:20 | 56.03282 | -2.97754 | 2997 ft | 226 kts | 329° |
| 2026-04-17 12:20 | 56.04473 | -2.99262 | 3002 ft | 196 kts | 305° |
| 2026-04-17 12:20 | 56.05201 | -3.01164 | 3015 ft | 178 kts | 284° |
| 2026-04-17 12:21 | 56.05526 | -3.03202 | 3015 ft | 165 kts | 267° |
| 2026-04-17 12:21 | 56.05498 | -3.05185 | 3010 ft | 155 kts | 251° |
| 2026-04-17 12:21 | 56.05172 | -3.06971 | 3009 ft | 147 kts | 234° |
| 2026-04-17 12:21 | 56.04657 | -3.08538 | 3010 ft | 146 kts | 230° |
| 2026-04-17 12:22 | 56.04143 | -3.10078 | 3002 ft | 145 kts | 230° |
| 2026-04-17 12:22 | 56.03630 | -3.11614 | 3000 ft | 144 kts | 230° |
| 2026-04-17 12:22 | 56.03109 | -3.13166 | 2913 ft | 146 kts | 231° |
| 2026-04-17 12:22 | 56.02604 | -3.14679 | 2755 ft | 137 kts | 230° |
| 2026-04-17 12:23 | 56.02127 | -3.16102 | 2593 ft | 131 kts | 231° |
| 2026-04-17 12:23 | 56.01663 | -3.17483 | 2434 ft | 129 kts | 231° |
| 2026-04-17 12:23 | 56.01209 | -3.18833 | 2274 ft | 128 kts | 232° |
| 2026-04-17 12:23 | 56.00745 | -3.20211 | 2104 ft | 128 kts | 231° |
| 2026-04-17 12:24 | 56.00285 | -3.21579 | 1933 ft | 129 kts | 232° |
| 2026-04-17 12:24 | 55.99823 | -3.22950 | 1765 ft | 129 kts | 232° |
| 2026-04-17 12:24 | 55.99361 | -3.24323 | 1591 ft | 129 kts | 233° |
| 2026-04-17 12:24 | 55.98903 | -3.25685 | 1426 ft | 129 kts | 234° |
| 2026-04-17 12:25 | 55.98443 | -3.27060 | 1226 ft | 130 kts | 236° |
| 2026-04-17 12:25 | 55.97990 | -3.28459 | 993 ft | 130 kts | 234° |
| 2026-04-17 12:25 | 55.97532 | -3.29834 | 867 ft | 129 kts | 235° |
| 2026-04-17 12:25 | 55.97071 | -3.31216 | 727 ft | 131 kts | 233° |
| 2026-04-17 12:26 | 55.96592 | -3.32583 | 565 ft | 129 kts | 235° |
| 2026-04-17 12:26 | 55.96120 | -3.33963 | 405 ft | 132 kts | 235° |
| 2026-04-17 12:26 | 55.95644 | -3.35377 | 211 ft | 132 kts | 235° |
| 2026-04-17 12:26 | 55.95184 | -3.36728 | 114 ft | 112 kts | 238° |
| 2026-04-17 12:27 | 55.94919 | -3.37488 | 112 ft | 48 kts | 239° |
| 2026-04-17 12:27 | 55.94776 | -3.37911 | 115 ft | 25 kts | 239° |
| 2026-04-17 12:27 | 55.94679 | -3.38043 | 113 ft | 12 kts | 160° |
| 2026-04-17 12:27 | 55.94618 | -3.37978 | 116 ft | 10 kts | 148° |
| 2026-04-17 12:28 | 55.94597 | -3.37868 | 113 ft | 11 kts | 68° |
| 2026-04-17 12:28 | 55.94635 | -3.37749 | 116 ft | 11 kts | 60° |
| 2026-04-17 12:28 | 55.94678 | -3.37626 | 116 ft | 12 kts | 58° |
| 2026-04-17 12:28 | 55.94722 | -3.37498 | 114 ft | 13 kts | 58° |
| 2026-04-17 12:29 | 55.94771 | -3.37358 | 115 ft | 14 kts | 59° |
| 2026-04-17 12:29 | 55.94821 | -3.37206 | 115 ft | 15 kts | 59° |
| 2026-04-17 12:29 | 55.94873 | -3.37054 | 113 ft | 15 kts | 58° |
| 2026-04-17 12:29 | 55.94923 | -3.36887 | 115 ft | 15 kts | 82° |
| 2026-04-17 12:30 | 55.94905 | -3.36723 | 116 ft | 15 kts | 70° |
| 2026-04-17 12:30 | 55.94953 | -3.36560 | 116 ft | 12 kts | 91° |
| 2026-04-17 12:30 | 55.94921 | -3.36513 | 113 ft | 2 kts | 147° |
| 2026-04-17 12:30 | 55.94903 | -3.36494 | 116 ft | 3 kts | 149° |
| 2026-04-17 12:31 | 55.94900 | -3.36489 | 113 ft | 0 kts | 149° |